Time;durP1;ratioP1;P1;durP2;ratioP2;P2;SDS_P1;SDS_P2;PMS_P1;PMS_P2;Temp;Humidity;BMP_temperature;BMP_pressure;BME280_temperature;BME280_humidity;BME280_pressure;Samples;Min_cycle;Max_cycle;Signal;HPM_P1;HPM_P2
2022/06/20 00:01:24;;;;;;;9.15;5.80;;;;;;;17.40;69.09;98438.50;4145099;84;21007;-85
2022/06/20 00:07:26;;;;;;;11.63;4.90;;;;;;;17.21;69.52;98438.77;4176231;83;21086;-84
2022/06/20 00:13:35;;;;;;;6.70;4.65;;;;;;;17.04;69.37;98435.19;4228784;82;21029;-85
2022/06/20 00:19:36;;;;;;;10.13;4.90;;;;;;;16.67;69.71;98439.81;4227699;82;21014;-85
2022/06/20 00:25:42;;;;;;;11.08;4.45;;;;;;;16.44;70.44;98440.48;4229381;82;21704;-85
2022/06/20 00:31:43;;;;;;;7.93;4.03;;;;;;;16.33;70.88;98430.25;4230701;82;21040;-85
2022/06/20 00:37:45;;;;;;;6.03;3.47;;;;;;;16.26;71.55;98439.46;4236392;82;20978;-85
2022/06/20 00:43:53;;;;;;;10.32;3.92;;;;;;;16.17;71.69;98440.64;4245294;82;21058;-84
2022/06/20 00:50:16;;;;;;;8.78;4.17;;;;;;;16.06;72.28;98441.45;4208059;83;21678;-84
2022/06/20 00:56:50;;;;;;;6.83;4.33;;;;;;;15.87;72.14;98453.25;4210718;82;21038;-85
2022/06/20 01:03:33;;;;;;;6.05;3.47;;;;;;;15.70;72.76;98473.67;4218077;83;21086;-85
2022/06/20 01:10:08;;;;;;;7.87;3.70;;;;;;;15.58;73.94;98478.42;4173616;82;21094;-85
2022/06/20 01:16:30;;;;;;;8.33;4.08;;;;;;;15.57;73.74;98467.19;4163893;83;21076;-85
2022/06/20 01:29:48;;;;;;;7.80;3.83;;;;;;;15.47;74.03;98466.78;4113325;83;21026;-85
2022/06/20 01:42:41;;;;;;;7.53;3.57;;;;;;;15.42;74.50;98462.53;4163435;83;21042;-85
2022/06/20 01:49:19;;;;;;;4.95;3.50;;;;;;;15.29;75.16;98453.84;4093160;83;21114;-85
2022/06/20 02:02:03;;;;;;;8.18;3.98;;;;;;;15.37;75.51;98458.83;4214804;82;21084;-85
2022/06/20 02:08:07;;;;;;;9.45;3.60;;;;;;;15.52;76.57;98451.90;4210825;82;21421;-85
2022/06/20 02:21:27;;;;;;;9.48;3.83;;;;;;;15.71;77.47;98436.59;4210779;83;21073;-84
2022/06/20 02:28:02;;;;;;;6.87;4.15;;;;;;;15.73;76.41;98441.68;4174937;83;21053;-85
2022/06/20 02:47:48;;;;;;;8.68;5.08;;;;;;;15.27;77.65;98434.95;4246642;83;21438;-85
2022/06/20 02:54:22;;;;;;;10.10;4.92;;;;;;;15.29;78.07;98434.54;4187942;83;21049;-85
2022/06/20 03:07:49;;;;;;;8.65;5.15;;;;;;;15.10;78.57;98407.08;4163852;83;21038;-85
2022/06/20 03:14:01;;;;;;;8.23;4.15;;;;;;;15.02;78.60;98431.81;4156492;83;21082;-86
2022/06/20 03:26:26;;;;;;;8.13;4.47;;;;;;;15.20;79.52;98435.09;4232485;82;21507;-85
2022/06/20 03:32:28;;;;;;;11.27;4.37;;;;;;;15.25;79.42;98447.62;4173869;83;21058;-86
2022/06/20 03:38:42;;;;;;;8.10;4.37;;;;;;;15.32;80.05;98453.00;4283765;82;21035;-85
2022/06/20 03:44:52;;;;;;;11.08;5.10;;;;;;;15.38;80.75;98449.97;4242489;83;20986;-85
2022/06/20 03:57:54;;;;;;;7.67;4.92;;;;;;;15.53;81.17;98439.66;4093432;82;21783;-85
2022/06/20 04:04:06;;;;;;;8.05;4.60;;;;;;;15.74;81.44;98434.98;4230085;82;21090;-86
2022/06/20 04:31:04;;;;;;;10.75;6.12;;;;;;;16.43;81.85;98468.70;4237994;82;21196;-86
2022/06/20 04:57:39;;;;;;;7.28;4.10;;;;;;;17.29;81.36;98474.70;3953926;84;21130;-85
2022/06/20 05:11:06;;;;;;;7.50;4.15;;;;;;;17.64;80.78;98484.94;4028431;86;22083;-86
2022/06/20 05:17:30;;;;;;;8.78;4.25;;;;;;;17.90;80.73;98476.17;4007141;87;22176;-85
2022/06/20 05:23:59;;;;;;;8.28;4.97;;;;;;;18.13;80.62;98482.27;3992939;87;21140;-85
2022/06/20 05:30:46;;;;;;;6.70;3.98;;;;;;;18.46;80.10;98498.20;3719832;93;21118;-86
2022/06/20 05:43:52;;;;;;;6.85;4.22;;;;;;;19.21;78.93;98496.14;3758373;93;21159;-86
2022/06/20 06:04:20;;;;;;;7.58;3.83;;;;;;;20.14;77.02;98497.63;3913178;86;21025;-86
2022/06/20 06:10:45;;;;;;;11.93;4.28;;;;;;;20.48;76.08;98467.03;3860392;88;21101;-85
2022/06/20 06:23:37;;;;;;;9.95;3.75;;;;;;;21.02;74.80;98489.62;4055449;85;21022;-86
2022/06/20 06:30:16;;;;;;;7.30;3.15;;;;;;;21.31;73.48;98470.55;4115170;85;21034;-86
2022/06/20 06:36:27;;;;;;;6.50;3.30;;;;;;;21.57;72.27;98463.53;4072100;85;21153;-85
2022/06/20 06:42:28;;;;;;;5.62;3.42;;;;;;;21.88;71.30;98455.73;4095695;85;21098;-86
2022/06/20 06:48:56;;;;;;;6.53;2.58;;;;;;;22.19;70.02;98448.74;4097890;85;21085;-87
2022/06/20 06:55:03;;;;;;;4.97;2.65;;;;;;;22.64;69.67;98442.38;4123352;85;21053;-86
2022/06/20 07:01:25;;;;;;;7.08;2.45;;;;;;;23.18;68.78;98432.41;4132284;84;21076;-86
2022/06/20 07:07:37;;;;;;;8.50;2.47;;;;;;;23.92;67.68;98438.50;4125607;83;21649;-87
2022/06/20 07:13:44;;;;;;;7.60;3.30;;;;;;;24.53;65.45;98424.47;4164376;83;21057;-87
2022/06/20 07:19:49;;;;;;;5.67;2.52;;;;;;;25.31;64.65;98421.57;4178852;83;21058;-86
2022/06/20 07:25:51;;;;;;;8.03;3.07;;;;;;;26.13;62.94;98421.30;4180116;83;21041;-86
2022/06/20 07:32:03;;;;;;;9.35;2.17;;;;;;;26.76;61.14;98409.59;4186333;83;21068;-87
2022/06/20 07:38:12;;;;;;;9.58;2.50;;;;;;;27.03;59.37;98413.23;4170602;83;21161;-85
2022/06/20 07:44:25;;;;;;;3.70;2.00;;;;;;;27.37;58.55;98410.84;4179499;83;21156;-86
2022/06/20 07:50:49;;;;;;;5.47;2.72;;;;;;;27.70;57.13;98408.84;4180979;83;21902;-87
2022/06/20 07:57:04;;;;;;;8.80;2.20;;;;;;;27.84;56.11;98407.87;4174774;83;21032;-85
2022/06/20 08:03:20;;;;;;;5.47;2.67;;;;;;;27.91;54.92;98398.22;4193737;83;21006;-86
2022/06/20 08:09:35;;;;;;;4.55;2.50;;;;;;;27.95;53.91;98392.48;4181890;83;21665;-87
2022/06/20 08:15:45;;;;;;;3.95;2.22;;;;;;;28.05;52.81;98383.92;4181639;83;21018;-86
2022/06/20 08:21:56;;;;;;;5.67;2.52;;;;;;;28.11;52.21;98382.55;4225091;83;21076;-86
2022/06/20 08:28:10;;;;;;;7.28;2.72;;;;;;;28.22;51.13;98354.44;4189247;84;21078;-85
2022/06/20 08:34:20;;;;;;;6.65;2.27;;;;;;;28.25;50.43;98335.12;4190529;84;21054;-85
2022/06/20 08:40:45;;;;;;;3.83;2.00;;;;;;;28.30;49.07;98312.61;4182123;83;21042;-86
2022/06/20 08:47:08;;;;;;;8.83;2.50;;;;;;;28.45;49.00;98314.55;4194218;84;21123;-84
2022/06/20 08:53:51;;;;;;;6.92;2.62;;;;;;;28.65;48.18;98298.05;4189141;83;22000;-86
2022/06/20 09:00:10;;;;;;;5.10;2.08;;;;;;;28.64;47.40;98282.45;4195155;83;21621;-85
2022/06/20 09:06:50;;;;;;;4.15;1.87;;;;;;;28.80;47.69;98265.52;4183053;83;21109;-86
2022/06/20 09:13:03;;;;;;;4.47;2.20;;;;;;;28.93;46.97;98256.52;4197803;83;21039;-88
2022/06/20 09:19:39;;;;;;;5.83;2.02;;;;;;;29.14;46.13;98254.97;4195895;84;21015;-86
2022/06/20 09:25:53;;;;;;;;;;;;;;;29.30;46.09;98242.87;4181065;84;21115;-86
2022/06/20 09:32:24;;;;;;;5.50;1.95;;;;;;;29.63;46.27;98233.47;4193403;84;20828;-86
2022/06/20 09:38:46;;;;;;;4.67;2.10;;;;;;;30.08;46.30;98227.04;4191818;84;21053;-84
2022/06/20 09:44:55;;;;;;;5.12;2.47;;;;;;;30.56;43.96;98208.02;4196834;84;21158;-85
2022/06/20 09:51:17;;;;;;;2.75;1.95;;;;;;;31.09;44.56;98193.06;4208622;83;21047;-86
2022/06/20 09:57:27;;;;;;;4.80;2.35;;;;;;;31.37;42.71;98178.62;4215471;83;21117;-86
2022/06/20 10:03:37;;;;;;;5.83;2.58;;;;;;;31.48;41.34;98161.49;4163315;84;21058;-86
2022/06/20 10:09:56;;;;;;;4.97;2.10;;;;;;;31.64;41.94;98149.92;4169191;84;21015;-85
2022/06/20 10:16:24;;;;;;;7.97;2.22;;;;;;;31.88;41.82;98129.25;4199955;84;21011;-86
2022/06/20 10:23:08;;;;;;;5.60;2.20;;;;;;;32.10;41.35;98119.61;4192420;84;21055;-87
2022/06/20 10:29:22;;;;;;;5.00;2.50;;;;;;;32.47;40.40;98125.91;4227690;83;20996;-87
2022/06/20 10:35:57;;;;;;;5.37;2.47;;;;;;;32.90;40.54;98126.37;4225457;83;21003;-87
2022/06/20 10:42:31;;;;;;;5.95;2.00;;;;;;;33.25;40.03;98142.09;4212584;83;21069;-86
2022/06/20 10:49:05;;;;;;;5.50;2.20;;;;;;;33.46;39.68;98130.83;4187107;83;21042;-88
2022/06/20 10:55:35;;;;;;;4.17;2.30;;;;;;;33.77;38.66;98127.77;4224375;82;20960;-86
2022/06/20 11:02:09;;;;;;;5.37;2.15;;;;;;;33.96;38.23;98141.13;4239735;83;21052;-87
2022/06/20 11:08:31;;;;;;;7.72;2.52;;;;;;;34.16;38.58;98140.36;4244723;82;21088;-88
2022/06/20 11:14:47;;;;;;;6.75;2.60;;;;;;;34.39;38.02;98138.48;4176775;83;21095;-87
2022/06/20 11:20:57;;;;;;;9.05;2.98;;;;;;;34.88;36.98;98127.07;4131787;84;21042;-87
2022/06/20 11:27:16;;;;;;;6.15;2.22;;;;;;;35.25;37.78;98134.27;4135863;84;21073;-87
2022/06/20 11:34:00;;;;;;;7.78;3.12;;;;;;;35.54;37.47;98135.05;4191744;83;21080;-86
2022/06/20 11:40:25;;;;;;;8.40;2.67;;;;;;;35.89;38.04;98127.75;4140557;84;21030;-88
2022/06/20 11:46:48;;;;;;;7.15;2.37;;;;;;;35.99;36.59;98125.19;4139948;84;21043;-88
2022/06/20 11:52:58;;;;;;;5.80;2.00;;;;;;;36.09;36.84;98111.91;4148019;84;21029;-87
2022/06/20 11:59:17;;;;;;;6.20;1.87;;;;;;;36.12;36.80;98102.87;4169434;83;21509;-88
2022/06/20 12:05:27;;;;;;;4.92;2.40;;;;;;;36.01;35.82;98104.68;4165966;83;21098;-88
2022/06/20 12:11:36;;;;;;;3.22;2.15;;;;;;;35.77;35.23;98100.95;4146510;83;21921;-88
2022/06/20 12:18:04;;;;;;;5.25;1.82;;;;;;;35.47;35.18;98107.34;4178410;83;21098;-87
2022/06/20 12:24:08;;;;;;;7.25;2.00;;;;;;;34.98;35.54;98113.09;4213803;82;20979;-87
2022/06/20 12:30:16;;;;;;;7.62;2.35;;;;;;;34.61;35.75;98172.66;4218638;83;21059;-85
2022/06/20 12:36:28;;;;;;;6.95;2.70;;;;;;;33.70;35.72;98205.73;4184523;83;21072;-86
2022/06/20 12:43:07;;;;;;;32.98;4.10;;;;;;;32.81;36.29;98225.22;4212535;83;21093;-86
2022/06/20 12:49:16;;;;;;;12.43;2.22;;;;;;;31.96;36.46;98263.92;4212000;83;21044;-87
2022/06/20 12:55:48;;;;;;;8.40;1.60;;;;;;;31.17;36.13;98302.06;4208878;83;21035;-85
2022/06/20 13:02:27;;;;;;;7.80;1.60;;;;;;;30.51;35.77;98294.97;4156335;83;21035;-87
2022/06/20 13:08:56;;;;;;;7.15;1.77;;;;;;;30.15;36.50;98305.48;4210699;83;21067;-87
2022/06/20 13:15:45;;;;;;;10.63;1.50;;;;;;;29.78;36.95;98291.10;4222824;83;21086;-85
2022/06/20 13:22:13;;;;;;;5.33;1.12;;;;;;;29.58;37.78;98273.11;4154176;83;21076;-87
2022/06/20 13:28:34;;;;;;;5.80;1.07;;;;;;;29.35;38.20;98273.73;4210277;82;21097;-87
2022/06/20 13:34:53;;;;;;;5.42;1.70;;;;;;;29.15;38.52;98282.48;4208781;83;21633;-87
2022/06/20 13:41:09;;;;;;;6.72;1.37;;;;;;;29.02;38.98;98292.86;4218038;82;21087;-86
2022/06/20 13:47:34;;;;;;;2.08;1.25;;;;;;;29.04;39.72;98288.89;4219219;83;21130;-87
2022/06/20 13:54:04;;;;;;;4.27;1.90;;;;;;;28.87;40.19;98291.77;4148755;83;114695;-88
2022/06/20 14:00:26;;;;;;;5.45;1.40;;;;;;;28.82;40.44;98300.98;4118013;85;21366;-87
2022/06/20 14:06:45;;;;;;;8.50;1.65;;;;;;;28.75;41.42;98302.90;4118204;85;21408;-87
2022/06/20 14:12:51;;;;;;;10.60;1.62;;;;;;;28.62;41.91;98311.12;4119034;85;21929;-86
2022/06/20 14:18:57;;;;;;;5.53;1.70;;;;;;;28.40;42.40;98340.64;4110462;85;21130;-87
2022/06/20 14:25:19;;;;;;;7.37;2.55;;;;;;;28.16;42.86;98387.44;4114127;85;21068;-86
2022/06/20 14:31:39;;;;;;;3.98;1.90;;;;;;;27.73;43.39;98434.54;4154183;84;21074;-86
2022/06/20 14:38:04;;;;;;;14.70;3.67;;;;;;;27.18;43.92;98470.69;4129103;83;21040;-85
2022/06/20 14:44:32;;;;;;;11.25;3.90;;;;;;;26.43;47.18;98513.08;4131776;84;21064;-83
2022/06/20 14:50:45;;;;;;;8.35;3.42;;;;;;;25.06;50.43;98471.96;4140310;84;21489;-85
2022/06/20 14:57:09;;;;;;;14.75;3.62;;;;;;;23.70;53.93;98465.98;4123755;84;21040;-85
2022/06/20 15:03:30;;;;;;;6.97;3.17;;;;;;;22.96;56.02;98453.59;4062558;86;21057;-86
2022/06/20 15:09:54;;;;;;;9.48;4.08;;;;;;;22.73;57.67;98429.79;4143096;84;21017;-84
2022/06/20 15:16:01;;;;;;;12.15;4.35;;;;;;;22.26;60.79;98436.51;4079878;84;21104;-85
2022/06/20 15:29:15;;;;;;;9.63;4.22;;;;;;;21.62;62.89;98375.81;4187130;83;21024;-86
2022/06/20 15:35:57;;;;;;;9.60;4.70;;;;;;;21.45;64.04;98354.45;4214687;83;22234;-85
2022/06/20 15:42:19;;;;;;;8.00;3.98;;;;;;;21.45;64.90;98347.50;4222712;83;21026;-85
2022/06/20 15:48:37;;;;;;;7.90;3.65;;;;;;;21.41;66.36;98332.94;4150991;84;20978;-86
2022/06/20 15:55:09;;;;;;;6.65;3.20;;;;;;;21.13;68.67;98382.05;4095936;86;21021;-85
2022/06/20 16:02:00;;;;;;;6.75;3.62;;;;;;;21.11;68.87;98358.86;4170369;84;21036;-85
2022/06/20 16:08:31;;;;;;;4.83;2.85;;;;;;;20.97;70.01;98286.34;4112716;84;29810;-86
2022/06/20 16:14:54;;;;;;;5.87;2.77;;;;;;;20.73;74.84;98286.70;4219157;81;22195;-86
2022/06/20 16:21:01;;;;;;;7.97;3.50;;;;;;;20.57;77.41;98262.72;4157492;83;21017;-88
2022/06/20 16:27:22;;;;;;;8.10;2.52;;;;;;;20.41;80.15;98209.36;4237118;82;21048;-85
2022/06/20 16:33:25;;;;;;;5.47;2.60;;;;;;;20.24;79.77;98149.11;4204181;83;22037;-86
2022/06/20 16:39:29;;;;;;;7.67;2.70;;;;;;;20.16;79.92;98104.78;4230105;82;21060;-84
2022/06/20 16:45:45;;;;;;;8.28;3.10;;;;;;;20.18;81.83;98114.22;4237309;82;21048;-85
2022/06/20 16:52:18;;;;;;;4.58;3.17;;;;;;;20.07;79.96;98140.25;4255897;82;21066;-85
2022/06/20 16:58:54;;;;;;;9.13;3.30;;;;;;;20.19;81.29;98119.92;4089719;81;10000193;-84
2022/06/20 17:05:13;;;;;;;8.18;3.33;;;;;;;20.36;81.02;98121.05;4248192;82;21013;-83
2022/06/20 17:11:57;;;;;;;6.70;3.30;;;;;;;20.50;80.69;98115.64;4231943;82;20996;-85
2022/06/20 17:18:17;;;;;;;6.25;4.17;;;;;;;20.64;81.12;98122.62;4154868;83;21553;-84
2022/06/20 17:24:50;;;;;;;5.85;3.58;;;;;;;20.59;82.24;98126.80;4151001;84;21044;-86
2022/06/20 17:31:34;;;;;;;6.37;3.50;;;;;;;20.63;82.41;98121.06;4086714;84;20983;-85
2022/06/20 17:38:14;;;;;;;7.28;3.50;;;;;;;20.58;83.09;98144.69;4031864;85;21014;-85
2022/06/20 17:44:47;;;;;;;11.88;4.08;;;;;;;20.59;83.74;98165.72;4160554;84;21078;-85
2022/06/20 17:50:57;;;;;;;6.67;4.22;;;;;;;20.50;84.39;98162.15;4015536;87;21093;-86
2022/06/20 17:57:25;;;;;;;6.78;5.00;;;;;;;20.48;84.62;98193.80;4164922;83;20985;-85
2022/06/20 18:03:41;;;;;;;8.43;4.95;;;;;;;20.48;84.83;98202.92;4144535;83;21059;-85
2022/06/20 18:16:57;;;;;;;7.87;4.47;;;;;;;20.47;85.55;98211.72;4103977;84;21057;-85
2022/06/20 18:23:14;;;;;;;9.05;4.65;;;;;;;20.51;85.94;98229.80;4082704;86;21968;-85
2022/06/20 18:29:17;;;;;;;6.90;4.17;;;;;;;20.39;86.09;98229.28;4131522;84;21870;-85
2022/06/20 18:35:25;;;;;;;7.12;4.60;;;;;;;20.26;86.79;98230.63;4123727;85;21042;-85
2022/06/20 18:41:28;;;;;;;10.50;4.80;;;;;;;20.18;86.82;98243.43;4151160;84;20988;-85
2022/06/20 18:48:02;;;;;;;10.85;5.17;;;;;;;20.23;87.22;98259.34;4094492;84;20982;-85
2022/06/20 18:54:45;;;;;;;11.68;5.20;;;;;;;20.26;87.57;98285.61;4129635;84;21062;-85
2022/06/20 19:01:19;;;;;;;7.33;4.78;;;;;;;20.18;87.88;98300.40;4169227;84;21625;-86
2022/06/20 19:08:09;;;;;;;7.60;4.95;;;;;;;20.07;88.38;98332.55;4137002;84;21040;-85
2022/06/20 19:14:51;;;;;;;8.35;5.22;;;;;;;20.04;88.87;98317.58;4091148;84;21629;-84
2022/06/20 19:21:24;;;;;;;13.98;5.45;;;;;;;20.03;89.23;98307.67;4254362;82;22018;-84
2022/06/20 19:28:06;;;;;;;10.60;6.00;;;;;;;20.03;89.62;98302.72;4241990;82;21022;-84
2022/06/20 19:34:27;;;;;;;10.93;7.30;;;;;;;19.93;89.91;98317.80;4255702;82;20966;-85
2022/06/20 21:18:58;;;;;;;12.75;7.83;;;;;;;19.00;94.97;98310.35;4230762;82;21112;-86
2022/06/20 22:09:38;;;;;;;12.03;8.73;;;;;;;18.18;95.59;98379.84;4216914;83;21399;-86
2022/06/20 23:47:35;;;;;;;2.05;0.60;;;;;;;16.68;91.35;98482.02;3945042;89;21079;-86
2022/06/20 23:54:30;;;;;;;2.22;1.07;;;;;;;16.72;91.06;98500.70;3973943;88;21056;-85
